sensor_id;sensor_type;location;lat;lon;timestamp;P1;durP1;ratioP1;P2;durP2;ratioP2
40621;SDS011;26324;52.040;11.528;2023-03-24T00:00:25;1.38;;;0.70;;
40621;SDS011;26324;52.040;11.528;2023-03-24T00:02:53;1.75;;;0.88;;
40621;SDS011;26324;52.040;11.528;2023-03-24T00:05:22;1.60;;;0.90;;
40621;SDS011;26324;52.040;11.528;2023-03-24T00:07:49;1.25;;;0.70;;
40621;SDS011;26324;52.040;11.528;2023-03-24T00:10:20;1.50;;;1.02;;
40621;SDS011;26324;52.040;11.528;2023-03-24T00:12:49;2.00;;;1.02;;
40621;SDS011;26324;52.040;11.528;2023-03-24T00:15:17;2.55;;;0.82;;
40621;SDS011;26324;52.040;11.528;2023-03-24T00:17:47;1.63;;;0.68;;
40621;SDS011;26324;52.040;11.528;2023-03-24T00:20:19;1.52;;;0.80;;
40621;SDS011;26324;52.040;11.528;2023-03-24T00:22:48;2.55;;;0.40;;
40621;SDS011;26324;52.040;11.528;2023-03-24T00:25:24;1.95;;;0.80;;
40621;SDS011;26324;52.040;11.528;2023-03-24T00:27:59;0.82;;;0.50;;
40621;SDS011;26324;52.040;11.528;2023-03-24T00:30:27;1.60;;;0.80;;
40621;SDS011;26324;52.040;11.528;2023-03-24T00:32:54;1.40;;;0.70;;
40621;SDS011;26324;52.040;11.528;2023-03-24T00:35:24;0.98;;;0.55;;
40621;SDS011;26324;52.040;11.528;2023-03-24T00:37:52;1.08;;;0.80;;
40621;SDS011;26324;52.040;11.528;2023-03-24T00:40:20;2.20;;;0.60;;
40621;SDS011;26324;52.040;11.528;2023-03-24T00:42:48;1.17;;;0.77;;
40621;SDS011;26324;52.040;11.528;2023-03-24T00:45:17;1.25;;;0.80;;
40621;SDS011;26324;52.040;11.528;2023-03-24T00:47:47;1.65;;;0.70;;
40621;SDS011;26324;52.040;11.528;2023-03-24T00:50:20;1.23;;;0.65;;
40621;SDS011;26324;52.040;11.528;2023-03-24T00:52:53;2.30;;;0.70;;
40621;SDS011;26324;52.040;11.528;2023-03-24T00:55:22;1.40;;;0.70;;
40621;SDS011;26324;52.040;11.528;2023-03-24T00:57:49;1.40;;;0.80;;
40621;SDS011;26324;52.040;11.528;2023-03-24T01:00:18;1.88;;;0.70;;
40621;SDS011;26324;52.040;11.528;2023-03-24T01:02:52;2.28;;;0.88;;
40621;SDS011;26324;52.040;11.528;2023-03-24T01:05:23;2.75;;;1.00;;
40621;SDS011;26324;52.040;11.528;2023-03-24T01:07:55;1.42;;;0.80;;
40621;SDS011;26324;52.040;11.528;2023-03-24T01:10:24;3.95;;;0.95;;
40621;SDS011;26324;52.040;11.528;2023-03-24T01:15:30;1.33;;;0.80;;
40621;SDS011;26324;52.040;11.528;2023-03-24T01:20:29;2.35;;;0.90;;
40621;SDS011;26324;52.040;11.528;2023-03-24T01:23:02;2.28;;;0.73;;
40621;SDS011;26324;52.040;11.528;2023-03-24T01:25:31;1.55;;;0.90;;
40621;SDS011;26324;52.040;11.528;2023-03-24T01:28:01;1.50;;;0.77;;
40621;SDS011;26324;52.040;11.528;2023-03-24T01:30:29;1.92;;;1.15;;
40621;SDS011;26324;52.040;11.528;2023-03-24T01:32:57;2.13;;;0.90;;
40621;SDS011;26324;52.040;11.528;2023-03-24T01:35:25;1.52;;;0.80;;
40621;SDS011;26324;52.040;11.528;2023-03-24T01:37:54;1.77;;;0.82;;
40621;SDS011;26324;52.040;11.528;2023-03-24T01:40:26;1.95;;;1.00;;
40621;SDS011;26324;52.040;11.528;2023-03-24T01:42:56;1.75;;;0.88;;
40621;SDS011;26324;52.040;11.528;2023-03-24T01:45:39;2.08;;;0.93;;
40621;SDS011;26324;52.040;11.528;2023-03-24T01:50:45;2.10;;;1.00;;
40621;SDS011;26324;52.040;11.528;2023-03-24T01:53:20;1.85;;;1.00;;
40621;SDS011;26324;52.040;11.528;2023-03-24T01:55:49;2.05;;;1.02;;
40621;SDS011;26324;52.040;11.528;2023-03-24T01:58:21;2.08;;;1.02;;
40621;SDS011;26324;52.040;11.528;2023-03-24T02:01:14;2.50;;;1.20;;
40621;SDS011;26324;52.040;11.528;2023-03-24T02:03:43;1.52;;;0.80;;
40621;SDS011;26324;52.040;11.528;2023-03-24T02:08:46;1.50;;;1.00;;
40621;SDS011;26324;52.040;11.528;2023-03-24T02:11:19;3.35;;;1.10;;
40621;SDS011;26324;52.040;11.528;2023-03-24T02:13:52;1.42;;;0.88;;
40621;SDS011;26324;52.040;11.528;2023-03-24T02:19:30;1.33;;;0.88;;
40621;SDS011;26324;52.040;11.528;2023-03-24T02:22:39;1.83;;;1.08;;
40621;SDS011;26324;52.040;11.528;2023-03-24T02:28:06;2.85;;;1.40;;
40621;SDS011;26324;52.040;11.528;2023-03-24T02:30:47;1.95;;;1.13;;
40621;SDS011;26324;52.040;11.528;2023-03-24T02:39:17;3.50;;;1.10;;
40621;SDS011;26324;52.040;11.528;2023-03-24T02:45:02;2.55;;;1.55;;
40621;SDS011;26324;52.040;11.528;2023-03-24T02:53:17;2.88;;;1.25;;
40621;SDS011;26324;52.040;11.528;2023-03-24T02:59:39;1.90;;;0.90;;
40621;SDS011;26324;52.040;11.528;2023-03-24T03:02:36;1.98;;;1.05;;
40621;SDS011;26324;52.040;11.528;2023-03-24T03:05:12;2.30;;;1.40;;
40621;SDS011;26324;52.040;11.528;2023-03-24T03:07:53;1.70;;;1.17;;
40621;SDS011;26324;52.040;11.528;2023-03-24T03:10:26;1.95;;;1.23;;
40621;SDS011;26324;52.040;11.528;2023-03-24T03:12:59;1.95;;;1.15;;
40621;SDS011;26324;52.040;11.528;2023-03-24T03:15:35;2.22;;;1.30;;
40621;SDS011;26324;52.040;11.528;2023-03-24T03:20:33;2.60;;;1.20;;
40621;SDS011;26324;52.040;11.528;2023-03-24T03:23:12;3.30;;;1.45;;
40621;SDS011;26324;52.040;11.528;2023-03-24T03:25:44;2.80;;;1.30;;
40621;SDS011;26324;52.040;11.528;2023-03-24T03:28:17;2.53;;;1.40;;
40621;SDS011;26324;52.040;11.528;2023-03-24T03:30:52;2.40;;;1.17;;
40621;SDS011;26324;52.040;11.528;2023-03-24T03:33:23;5.28;;;1.30;;
40621;SDS011;26324;52.040;11.528;2023-03-24T03:36:03;1.90;;;1.08;;
40621;SDS011;26324;52.040;11.528;2023-03-24T03:38:46;2.83;;;1.38;;
40621;SDS011;26324;52.040;11.528;2023-03-24T03:41:20;1.98;;;1.30;;
40621;SDS011;26324;52.040;11.528;2023-03-24T03:43:48;3.90;;;1.30;;
40621;SDS011;26324;52.040;11.528;2023-03-24T03:46:17;3.65;;;1.20;;
40621;SDS011;26324;52.040;11.528;2023-03-24T03:48:45;1.85;;;1.17;;
40621;SDS011;26324;52.040;11.528;2023-03-24T03:51:13;3.42;;;1.50;;
40621;SDS011;26324;52.040;11.528;2023-03-24T03:53:52;2.00;;;1.17;;
40621;SDS011;26324;52.040;11.528;2023-03-24T03:56:25;3.45;;;1.60;;
40621;SDS011;26324;52.040;11.528;2023-03-24T03:59:29;4.35;;;1.27;;
40621;SDS011;26324;52.040;11.528;2023-03-24T04:04:56;2.55;;;1.25;;
40621;SDS011;26324;52.040;11.528;2023-03-24T04:08:19;2.60;;;1.48;;
40621;SDS011;26324;52.040;11.528;2023-03-24T04:11:02;2.97;;;1.33;;
40621;SDS011;26324;52.040;11.528;2023-03-24T04:23:01;2.00;;;1.42;;
40621;SDS011;26324;52.040;11.528;2023-03-24T04:25:44;2.70;;;1.52;;
40621;SDS011;26324;52.040;11.528;2023-03-24T04:31:26;2.55;;;1.33;;
40621;SDS011;26324;52.040;11.528;2023-03-24T04:34:02;2.10;;;1.45;;
40621;SDS011;26324;52.040;11.528;2023-03-24T04:37:00;2.38;;;1.50;;
40621;SDS011;26324;52.040;11.528;2023-03-24T04:39:47;2.00;;;1.45;;
40621;SDS011;26324;52.040;11.528;2023-03-24T04:42:18;2.80;;;1.45;;
40621;SDS011;26324;52.040;11.528;2023-03-24T04:44:51;1.92;;;1.10;;
40621;SDS011;26324;52.040;11.528;2023-03-24T04:47:45;2.22;;;1.33;;
40621;SDS011;26324;52.040;11.528;2023-03-24T04:50:38;3.30;;;1.48;;
40621;SDS011;26324;52.040;11.528;2023-03-24T04:53:14;3.25;;;1.30;;
40621;SDS011;26324;52.040;11.528;2023-03-24T04:58:26;3.28;;;1.63;;
40621;SDS011;26324;52.040;11.528;2023-03-24T05:00:54;2.90;;;1.58;;
40621;SDS011;26324;52.040;11.528;2023-03-24T05:03:22;1.77;;;1.02;;
40621;SDS011;26324;52.040;11.528;2023-03-24T05:05:52;3.17;;;1.70;;
40621;SDS011;26324;52.040;11.528;2023-03-24T05:08:20;3.10;;;1.60;;
40621;SDS011;26324;52.040;11.528;2023-03-24T05:10:49;3.45;;;1.50;;
40621;SDS011;26324;52.040;11.528;2023-03-24T05:13:16;3.08;;;1.35;;
40621;SDS011;26324;52.040;11.528;2023-03-24T05:15:51;3.00;;;1.70;;
40621;SDS011;26324;52.040;11.528;2023-03-24T05:18:34;2.55;;;1.38;;
40621;SDS011;26324;52.040;11.528;2023-03-24T05:21:03;5.35;;;2.03;;
40621;SDS011;26324;52.040;11.528;2023-03-24T05:23:33;2.08;;;1.23;;
40621;SDS011;26324;52.040;11.528;2023-03-24T05:26:00;1.98;;;1.08;;
40621;SDS011;26324;52.040;11.528;2023-03-24T05:28:31;2.67;;;1.38;;
40621;SDS011;26324;52.040;11.528;2023-03-24T05:30:58;2.05;;;1.23;;
40621;SDS011;26324;52.040;11.528;2023-03-24T05:33:45;1.83;;;1.30;;
40621;SDS011;26324;52.040;11.528;2023-03-24T05:36:17;3.20;;;1.42;;
40621;SDS011;26324;52.040;11.528;2023-03-24T05:38:52;3.97;;;1.60;;
40621;SDS011;26324;52.040;11.528;2023-03-24T05:41:20;2.35;;;1.30;;
40621;SDS011;26324;52.040;11.528;2023-03-24T05:43:50;2.08;;;1.00;;
40621;SDS011;26324;52.040;11.528;2023-03-24T05:46:18;2.00;;;1.08;;
40621;SDS011;26324;52.040;11.528;2023-03-24T05:48:47;2.78;;;1.45;;
40621;SDS011;26324;52.040;11.528;2023-03-24T05:51:18;2.83;;;1.50;;
40621;SDS011;26324;52.040;11.528;2023-03-24T05:53:53;2.40;;;1.52;;
40621;SDS011;26324;52.040;11.528;2023-03-24T05:56:26;1.98;;;1.15;;
40621;SDS011;26324;52.040;11.528;2023-03-24T05:58:56;6.55;;;1.73;;
40621;SDS011;26324;52.040;11.528;2023-03-24T06:01:34;2.15;;;1.27;;
40621;SDS011;26324;52.040;11.528;2023-03-24T06:04:14;3.40;;;1.52;;
40621;SDS011;26324;52.040;11.528;2023-03-24T06:06:42;2.80;;;1.50;;
40621;SDS011;26324;52.040;11.528;2023-03-24T06:09:12;2.70;;;1.63;;
40621;SDS011;26324;52.040;11.528;2023-03-24T06:11:41;3.03;;;1.38;;
40621;SDS011;26324;52.040;11.528;2023-03-24T06:14:10;1.73;;;1.42;;
40621;SDS011;26324;52.040;11.528;2023-03-24T06:16:49;6.00;;;2.53;;
40621;SDS011;26324;52.040;11.528;2023-03-24T06:19:17;3.63;;;1.73;;
40621;SDS011;26324;52.040;11.528;2023-03-24T06:22:12;3.33;;;1.70;;
40621;SDS011;26324;52.040;11.528;2023-03-24T06:24:40;3.30;;;1.83;;
40621;SDS011;26324;52.040;11.528;2023-03-24T06:27:10;2.65;;;1.42;;
40621;SDS011;26324;52.040;11.528;2023-03-24T06:29:37;2.92;;;1.67;;
40621;SDS011;26324;52.040;11.528;2023-03-24T06:32:08;5.45;;;2.38;;
40621;SDS011;26324;52.040;11.528;2023-03-24T06:34:40;2.60;;;1.92;;
40621;SDS011;26324;52.040;11.528;2023-03-24T06:37:31;3.45;;;1.88;;
40621;SDS011;26324;52.040;11.528;2023-03-24T06:39:59;3.22;;;1.65;;
40621;SDS011;26324;52.040;11.528;2023-03-24T06:42:30;3.30;;;1.85;;
40621;SDS011;26324;52.040;11.528;2023-03-24T06:44:57;3.97;;;1.98;;
40621;SDS011;26324;52.040;11.528;2023-03-24T06:47:24;4.47;;;1.90;;
40621;SDS011;26324;52.040;11.528;2023-03-24T06:49:52;4.55;;;1.60;;
40621;SDS011;26324;52.040;11.528;2023-03-24T06:52:19;3.22;;;2.03;;
40621;SDS011;26324;52.040;11.528;2023-03-24T06:54:46;3.42;;;1.67;;
40621;SDS011;26324;52.040;11.528;2023-03-24T06:57:14;2.40;;;1.50;;
40621;SDS011;26324;52.040;11.528;2023-03-24T07:00:00;3.75;;;1.77;;
40621;SDS011;26324;52.040;11.528;2023-03-24T07:02:36;3.05;;;1.85;;
40621;SDS011;26324;52.040;11.528;2023-03-24T07:05:05;5.72;;;2.15;;
40621;SDS011;26324;52.040;11.528;2023-03-24T07:07:39;4.25;;;1.90;;
40621;SDS011;26324;52.040;11.528;2023-03-24T07:10:34;3.50;;;2.00;;
40621;SDS011;26324;52.040;11.528;2023-03-24T07:13:03;2.63;;;1.70;;
40621;SDS011;26324;52.040;11.528;2023-03-24T07:15:32;3.17;;;1.70;;
40621;SDS011;26324;52.040;11.528;2023-03-24T07:17:59;4.18;;;1.58;;
40621;SDS011;26324;52.040;11.528;2023-03-24T07:20:34;7.18;;;1.77;;
40621;SDS011;26324;52.040;11.528;2023-03-24T07:23:07;3.58;;;1.60;;
40621;SDS011;26324;52.040;11.528;2023-03-24T07:26:12;2.70;;;1.77;;
40621;SDS011;26324;52.040;11.528;2023-03-24T07:31:26;3.88;;;2.00;;
40621;SDS011;26324;52.040;11.528;2023-03-24T07:34:00;2.47;;;1.45;;
40621;SDS011;26324;52.040;11.528;2023-03-24T07:38:56;3.50;;;1.58;;
40621;SDS011;26324;52.040;11.528;2023-03-24T07:41:30;3.40;;;1.48;;
40621;SDS011;26324;52.040;11.528;2023-03-24T07:44:02;2.15;;;1.02;;
40621;SDS011;26324;52.040;11.528;2023-03-24T07:46:36;2.45;;;1.42;;
40621;SDS011;26324;52.040;11.528;2023-03-24T07:49:04;2.65;;;1.52;;
40621;SDS011;26324;52.040;11.528;2023-03-24T07:51:47;2.65;;;1.60;;
40621;SDS011;26324;52.040;11.528;2023-03-24T07:54:35;3.85;;;2.25;;
40621;SDS011;26324;52.040;11.528;2023-03-24T07:57:03;4.25;;;1.95;;
40621;SDS011;26324;52.040;11.528;2023-03-24T07:59:30;4.35;;;2.00;;
40621;SDS011;26324;52.040;11.528;2023-03-24T08:02:15;3.78;;;2.00;;
40621;SDS011;26324;52.040;11.528;2023-03-24T08:05:10;3.58;;;1.75;;
40621;SDS011;26324;52.040;11.528;2023-03-24T08:08:07;2.53;;;1.58;;
40621;SDS011;26324;52.040;11.528;2023-03-24T08:10:34;4.40;;;2.00;;
40621;SDS011;26324;52.040;11.528;2023-03-24T08:13:02;2.80;;;1.63;;
40621;SDS011;26324;52.040;11.528;2023-03-24T08:15:29;3.25;;;1.88;;
40621;SDS011;26324;52.040;11.528;2023-03-24T08:17:57;3.65;;;1.77;;
40621;SDS011;26324;52.040;11.528;2023-03-24T08:20:25;3.53;;;1.98;;
40621;SDS011;26324;52.040;11.528;2023-03-24T08:22:54;2.70;;;1.60;;
40621;SDS011;26324;52.040;11.528;2023-03-24T08:25:22;3.28;;;1.65;;
40621;SDS011;26324;52.040;11.528;2023-03-24T08:27:51;4.20;;;1.95;;
40621;SDS011;26324;52.040;11.528;2023-03-24T08:30:20;2.70;;;2.10;;
40621;SDS011;26324;52.040;11.528;2023-03-24T08:32:50;3.85;;;1.50;;
40621;SDS011;26324;52.040;11.528;2023-03-24T08:35:21;2.50;;;1.63;;
40621;SDS011;26324;52.040;11.528;2023-03-24T08:37:50;3.85;;;2.25;;
40621;SDS011;26324;52.040;11.528;2023-03-24T08:40:19;5.95;;;1.70;;
40621;SDS011;26324;52.040;11.528;2023-03-24T08:42:50;2.40;;;1.60;;
40621;SDS011;26324;52.040;11.528;2023-03-24T08:45:20;2.88;;;1.83;;
40621;SDS011;26324;52.040;11.528;2023-03-24T08:47:50;4.70;;;2.20;;
40621;SDS011;26324;52.040;11.528;2023-03-24T08:50:19;2.70;;;1.70;;
40621;SDS011;26324;52.040;11.528;2023-03-24T08:52:47;1.83;;;1.40;;
40621;SDS011;26324;52.040;11.528;2023-03-24T08:55:16;2.97;;;1.73;;
40621;SDS011;26324;52.040;11.528;2023-03-24T09:02:41;1.98;;;1.20;;
40621;SDS011;26324;52.040;11.528;2023-03-24T09:05:09;4.18;;;1.95;;
40621;SDS011;26324;52.040;11.528;2023-03-24T09:07:37;4.18;;;1.38;;
40621;SDS011;26324;52.040;11.528;2023-03-24T09:10:05;2.75;;;1.77;;
40621;SDS011;26324;52.040;11.528;2023-03-24T09:12:34;2.35;;;1.50;;
40621;SDS011;26324;52.040;11.528;2023-03-24T09:15:03;1.88;;;1.10;;
40621;SDS011;26324;52.040;11.528;2023-03-24T09:17:32;2.38;;;1.30;;
40621;SDS011;26324;52.040;11.528;2023-03-24T09:20:00;2.70;;;1.42;;
40621;SDS011;26324;52.040;11.528;2023-03-24T09:22:45;3.35;;;1.42;;
40621;SDS011;26324;52.040;11.528;2023-03-24T09:25:15;2.85;;;1.20;;
40621;SDS011;26324;52.040;11.528;2023-03-24T09:27:44;1.83;;;0.90;;
40621;SDS011;26324;52.040;11.528;2023-03-24T09:30:12;1.48;;;1.08;;
40621;SDS011;26324;52.040;11.528;2023-03-24T09:32:41;1.38;;;0.70;;
40621;SDS011;26324;52.040;11.528;2023-03-24T09:35:11;1.98;;;0.60;;
40621;SDS011;26324;52.040;11.528;2023-03-24T09:37:39;1.77;;;0.60;;
40621;SDS011;26324;52.040;11.528;2023-03-24T09:40:13;1.88;;;0.63;;
40621;SDS011;26324;52.040;11.528;2023-03-24T09:42:48;1.45;;;0.82;;
40621;SDS011;26324;52.040;11.528;2023-03-24T09:48:11;2.58;;;0.60;;
40621;SDS011;26324;52.040;11.528;2023-03-24T09:50:52;2.17;;;0.77;;
40621;SDS011;26324;52.040;11.528;2023-03-24T09:56:37;1.95;;;0.77;;
40621;SDS011;26324;52.040;11.528;2023-03-24T09:59:18;2.28;;;0.80;;
40621;SDS011;26324;52.040;11.528;2023-03-24T10:01:47;1.80;;;0.88;;
40621;SDS011;26324;52.040;11.528;2023-03-24T10:04:24;2.03;;;1.00;;
40621;SDS011;26324;52.040;11.528;2023-03-24T10:06:55;2.33;;;1.27;;
40621;SDS011;26324;52.040;11.528;2023-03-24T10:09:33;1.52;;;1.00;;
40621;SDS011;26324;52.040;11.528;2023-03-24T10:23:48;2.35;;;1.25;;
40621;SDS011;26324;52.040;11.528;2023-03-24T10:26:31;2.75;;;1.35;;
40621;SDS011;26324;52.040;11.528;2023-03-24T10:29:12;1.98;;;1.35;;
40621;SDS011;26324;52.040;11.528;2023-03-24T10:31:58;4.85;;;1.42;;
40621;SDS011;26324;52.040;11.528;2023-03-24T10:34:29;3.83;;;1.42;;
40621;SDS011;26324;52.040;11.528;2023-03-24T10:37:01;2.10;;;1.02;;
40621;SDS011;26324;52.040;11.528;2023-03-24T10:39:30;2.35;;;1.13;;
40621;SDS011;26324;52.040;11.528;2023-03-24T10:42:01;2.03;;;1.38;;
40621;SDS011;26324;52.040;11.528;2023-03-24T10:44:31;1.70;;;1.15;;
40621;SDS011;26324;52.040;11.528;2023-03-24T10:47:01;1.10;;;0.80;;
40621;SDS011;26324;52.040;11.528;2023-03-24T10:49:33;1.88;;;1.10;;
40621;SDS011;26324;52.040;11.528;2023-03-24T10:52:01;1.00;;;0.70;;
40621;SDS011;26324;52.040;11.528;2023-03-24T10:54:34;1.55;;;1.15;;
40621;SDS011;26324;52.040;11.528;2023-03-24T10:57:03;1.80;;;1.15;;
40621;SDS011;26324;52.040;11.528;2023-03-24T10:59:34;3.05;;;1.02;;
40621;SDS011;26324;52.040;11.528;2023-03-24T11:02:23;1.40;;;0.90;;
40621;SDS011;26324;52.040;11.528;2023-03-24T11:04:57;2.95;;;0.80;;
40621;SDS011;26324;52.040;11.528;2023-03-24T11:07:29;0.95;;;0.80;;
40621;SDS011;26324;52.040;11.528;2023-03-24T11:10:03;1.42;;;0.98;;
40621;SDS011;26324;52.040;11.528;2023-03-24T11:12:35;1.45;;;0.85;;
40621;SDS011;26324;52.040;11.528;2023-03-24T11:15:21;2.72;;;1.00;;
40621;SDS011;26324;52.040;11.528;2023-03-24T11:17:54;0.98;;;0.60;;
40621;SDS011;26324;52.040;11.528;2023-03-24T11:20:46;1.42;;;0.80;;
40621;SDS011;26324;52.040;11.528;2023-03-24T11:23:37;0.75;;;0.63;;
40621;SDS011;26324;52.040;11.528;2023-03-24T11:26:08;1.67;;;0.98;;
40621;SDS011;26324;52.040;11.528;2023-03-24T11:28:42;1.88;;;0.80;;
40621;SDS011;26324;52.040;11.528;2023-03-24T11:31:13;1.55;;;0.70;;
40621;SDS011;26324;52.040;11.528;2023-03-24T11:33:57;0.82;;;0.68;;
40621;SDS011;26324;52.040;11.528;2023-03-24T11:36:35;0.80;;;0.70;;
40621;SDS011;26324;52.040;11.528;2023-03-24T11:44:18;1.60;;;1.00;;
40621;SDS011;26324;52.040;11.528;2023-03-24T11:46:46;1.80;;;0.90;;
40621;SDS011;26324;52.040;11.528;2023-03-24T11:49:26;1.40;;;0.80;;
40621;SDS011;26324;52.040;11.528;2023-03-24T11:51:57;1.10;;;0.93;;
40621;SDS011;26324;52.040;11.528;2023-03-24T11:54:34;1.23;;;0.77;;
40621;SDS011;26324;52.040;11.528;2023-03-24T11:57:07;2.53;;;1.05;;
40621;SDS011;26324;52.040;11.528;2023-03-24T11:59:45;1.77;;;0.80;;
40621;SDS011;26324;52.040;11.528;2023-03-24T12:02:24;2.40;;;1.00;;
40621;SDS011;26324;52.040;11.528;2023-03-24T12:05:19;2.05;;;0.93;;
40621;SDS011;26324;52.040;11.528;2023-03-24T12:10:48;2.80;;;1.25;;
40621;SDS011;26324;52.040;11.528;2023-03-24T12:21:57;2.72;;;1.30;;
40621;SDS011;26324;52.040;11.528;2023-03-24T12:27:31;2.50;;;1.20;;
40621;SDS011;26324;52.040;11.528;2023-03-24T12:30:20;3.25;;;1.27;;
40621;SDS011;26324;52.040;11.528;2023-03-24T12:33:26;3.63;;;1.10;;
40621;SDS011;26324;52.040;11.528;2023-03-24T12:36:03;2.72;;;1.13;;
40621;SDS011;26324;52.040;11.528;2023-03-24T12:38:58;1.60;;;1.08;;
40621;SDS011;26324;52.040;11.528;2023-03-24T12:41:35;3.17;;;1.20;;
40621;SDS011;26324;52.040;11.528;2023-03-24T12:44:22;2.08;;;1.20;;
40621;SDS011;26324;52.040;11.528;2023-03-24T12:49:54;2.80;;;1.27;;
40621;SDS011;26324;52.040;11.528;2023-03-24T12:56:00;2.28;;;0.88;;
40621;SDS011;26324;52.040;11.528;2023-03-24T13:01:24;1.05;;;0.73;;
40621;SDS011;26324;52.040;11.528;2023-03-24T13:04:14;2.40;;;1.00;;
40621;SDS011;26324;52.040;11.528;2023-03-24T13:06:48;4.30;;;1.30;;
40621;SDS011;26324;52.040;11.528;2023-03-24T13:09:33;2.20;;;1.20;;
40621;SDS011;26324;52.040;11.528;2023-03-24T13:12:11;2.20;;;1.30;;
40621;SDS011;26324;52.040;11.528;2023-03-24T13:17:25;2.92;;;1.35;;
40621;SDS011;26324;52.040;11.528;2023-03-24T13:19:57;1.60;;;0.68;;
40621;SDS011;26324;52.040;11.528;2023-03-24T13:22:32;4.15;;;2.10;;
40621;SDS011;26324;52.040;11.528;2023-03-24T13:25:03;1.52;;;0.90;;
40621;SDS011;26324;52.040;11.528;2023-03-24T13:27:43;2.95;;;0.95;;
40621;SDS011;26324;52.040;11.528;2023-03-24T13:30:22;3.42;;;1.15;;
40621;SDS011;26324;52.040;11.528;2023-03-24T13:33:01;2.38;;;0.80;;
40621;SDS011;26324;52.040;11.528;2023-03-24T13:38:39;2.15;;;1.38;;
40621;SDS011;26324;52.040;11.528;2023-03-24T13:41:19;3.90;;;1.25;;
40621;SDS011;26324;52.040;11.528;2023-03-24T13:43:51;1.42;;;1.02;;
40621;SDS011;26324;52.040;11.528;2023-03-24T13:46:36;1.83;;;0.93;;
40621;SDS011;26324;52.040;11.528;2023-03-24T13:49:09;2.53;;;0.77;;
40621;SDS011;26324;52.040;11.528;2023-03-24T13:51:43;2.38;;;0.88;;
40621;SDS011;26324;52.040;11.528;2023-03-24T13:54:13;3.30;;;1.10;;
40621;SDS011;26324;52.040;11.528;2023-03-24T13:56:48;3.05;;;1.27;;
40621;SDS011;26324;52.040;11.528;2023-03-24T13:59:25;1.20;;;0.70;;
40621;SDS011;26324;52.040;11.528;2023-03-24T14:12:53;3.58;;;1.20;;
40621;SDS011;26324;52.040;11.528;2023-03-24T14:18:13;1.65;;;1.10;;
40621;SDS011;26324;52.040;11.528;2023-03-24T14:25:52;2.22;;;0.88;;
40621;SDS011;26324;52.040;11.528;2023-03-24T14:31:35;3.22;;;1.85;;
40621;SDS011;26324;52.040;11.528;2023-03-24T14:36:19;2.80;;;1.20;;
40621;SDS011;26324;52.040;11.528;2023-03-24T14:39:05;1.35;;;1.08;;
40621;SDS011;26324;52.040;11.528;2023-03-24T14:41:52;1.98;;;1.30;;
40621;SDS011;26324;52.040;11.528;2023-03-24T14:47:25;1.70;;;1.13;;
40621;SDS011;26324;52.040;11.528;2023-03-24T14:52:26;4.60;;;0.90;;
40621;SDS011;26324;52.040;11.528;2023-03-24T14:55:05;1.67;;;0.98;;
40621;SDS011;26324;52.040;11.528;2023-03-24T14:57:39;2.92;;;1.30;;
40621;SDS011;26324;52.040;11.528;2023-03-24T15:00:25;2.63;;;1.05;;
40621;SDS011;26324;52.040;11.528;2023-03-24T15:03:01;5.53;;;1.55;;
40621;SDS011;26324;52.040;11.528;2023-03-24T15:05:42;1.85;;;1.00;;
40621;SDS011;26324;52.040;11.528;2023-03-24T15:08:11;3.72;;;1.40;;
40621;SDS011;26324;52.040;11.528;2023-03-24T15:10:48;2.72;;;1.33;;
40621;SDS011;26324;52.040;11.528;2023-03-24T15:16:06;2.72;;;1.52;;
40621;SDS011;26324;52.040;11.528;2023-03-24T15:18:56;2.53;;;1.20;;
40621;SDS011;26324;52.040;11.528;2023-03-24T15:21:38;1.70;;;1.10;;
40621;SDS011;26324;52.040;11.528;2023-03-24T15:24:32;2.28;;;1.10;;
40621;SDS011;26324;52.040;11.528;2023-03-24T15:29:42;2.78;;;0.98;;
40621;SDS011;26324;52.040;11.528;2023-03-24T15:32:17;3.28;;;1.10;;
40621;SDS011;26324;52.040;11.528;2023-03-24T15:34:47;2.80;;;1.15;;
40621;SDS011;26324;52.040;11.528;2023-03-24T15:37:32;1.25;;;0.80;;
40621;SDS011;26324;52.040;11.528;2023-03-24T15:40:05;1.70;;;1.00;;
40621;SDS011;26324;52.040;11.528;2023-03-24T15:42:42;2.17;;;1.00;;
40621;SDS011;26324;52.040;11.528;2023-03-24T15:45:56;3.92;;;1.02;;
40621;SDS011;26324;52.040;11.528;2023-03-24T15:48:13;3.70;;;1.05;;
40621;SDS011;26324;52.040;11.528;2023-03-24T15:53:35;2.38;;;1.10;;
40621;SDS011;26324;52.040;11.528;2023-03-24T15:58:44;6.80;;;1.90;;
40621;SDS011;26324;52.040;11.528;2023-03-24T16:01:11;3.53;;;0.80;;
40621;SDS011;26324;52.040;11.528;2023-03-24T16:03:43;1.85;;;0.80;;
40621;SDS011;26324;52.040;11.528;2023-03-24T16:06:14;3.05;;;0.80;;
40621;SDS011;26324;52.040;11.528;2023-03-24T16:08:51;3.03;;;1.25;;
40621;SDS011;26324;52.040;11.528;2023-03-24T16:11:19;1.75;;;0.80;;
40621;SDS011;26324;52.040;11.528;2023-03-24T16:13:47;1.77;;;0.63;;
40621;SDS011;26324;52.040;11.528;2023-03-24T16:18:42;2.08;;;0.80;;
40621;SDS011;26324;52.040;11.528;2023-03-24T16:23:41;2.83;;;0.60;;
40621;SDS011;26324;52.040;11.528;2023-03-24T16:26:13;3.30;;;0.90;;
40621;SDS011;26324;52.040;11.528;2023-03-24T16:28:43;4.78;;;0.93;;
40621;SDS011;26324;52.040;11.528;2023-03-24T16:31:16;2.90;;;0.90;;
40621;SDS011;26324;52.040;11.528;2023-03-24T16:33:48;1.75;;;0.70;;
40621;SDS011;26324;52.040;11.528;2023-03-24T16:36:23;1.35;;;0.60;;
40621;SDS011;26324;52.040;11.528;2023-03-24T16:38:55;1.17;;;0.40;;
40621;SDS011;26324;52.040;11.528;2023-03-24T16:41:23;2.80;;;0.63;;
40621;SDS011;26324;52.040;11.528;2023-03-24T16:43:51;7.25;;;1.20;;
40621;SDS011;26324;52.040;11.528;2023-03-24T16:48:52;1.10;;;0.55;;
40621;SDS011;26324;52.040;11.528;2023-03-24T16:51:20;2.53;;;1.05;;
40621;SDS011;26324;52.040;11.528;2023-03-24T16:53:47;7.35;;;5.88;;
40621;SDS011;26324;52.040;11.528;2023-03-24T16:56:16;8.25;;;4.18;;
40621;SDS011;26324;52.040;11.528;2023-03-24T16:58:48;3.63;;;1.50;;
40621;SDS011;26324;52.040;11.528;2023-03-24T17:01:19;3.13;;;1.23;;
40621;SDS011;26324;52.040;11.528;2023-03-24T17:04:02;2.78;;;0.70;;
40621;SDS011;26324;52.040;11.528;2023-03-24T17:06:36;3.45;;;1.05;;
40621;SDS011;26324;52.040;11.528;2023-03-24T17:09:05;2.85;;;0.88;;
40621;SDS011;26324;52.040;11.528;2023-03-24T17:11:35;1.88;;;0.95;;
40621;SDS011;26324;52.040;11.528;2023-03-24T17:14:04;3.58;;;1.05;;
40621;SDS011;26324;52.040;11.528;2023-03-24T17:16:42;2.70;;;0.70;;
40621;SDS011;26324;52.040;11.528;2023-03-24T17:19:15;4.93;;;0.68;;
40621;SDS011;26324;52.040;11.528;2023-03-24T17:21:46;1.20;;;0.60;;
40621;SDS011;26324;52.040;11.528;2023-03-24T17:24:20;1.02;;;0.68;;
40621;SDS011;26324;52.040;11.528;2023-03-24T17:26:49;5.28;;;1.05;;
40621;SDS011;26324;52.040;11.528;2023-03-24T17:29:17;2.45;;;0.77;;
40621;SDS011;26324;52.040;11.528;2023-03-24T17:31:44;2.85;;;0.63;;
40621;SDS011;26324;52.040;11.528;2023-03-24T17:34:12;0.93;;;0.60;;
40621;SDS011;26324;52.040;11.528;2023-03-24T17:36:43;2.00;;;0.77;;
40621;SDS011;26324;52.040;11.528;2023-03-24T17:39:13;4.05;;;1.40;;
40621;SDS011;26324;52.040;11.528;2023-03-24T17:41:42;3.17;;;0.68;;
40621;SDS011;26324;52.040;11.528;2023-03-24T17:44:10;4.32;;;0.77;;
40621;SDS011;26324;52.040;11.528;2023-03-24T17:46:37;1.80;;;0.60;;
40621;SDS011;26324;52.040;11.528;2023-03-24T17:49:05;2.97;;;0.88;;
40621;SDS011;26324;52.040;11.528;2023-03-24T17:51:33;2.08;;;1.08;;
40621;SDS011;26324;52.040;11.528;2023-03-24T17:54:00;3.67;;;1.48;;
40621;SDS011;26324;52.040;11.528;2023-03-24T17:56:27;4.10;;;0.90;;
40621;SDS011;26324;52.040;11.528;2023-03-24T17:58:54;4.57;;;1.60;;